Time;durP1;ratioP1;P1;durP2;ratioP2;P2;SDS_P1;SDS_P2;PMS_P1;PMS_P2;Temp;Humidity;BMP_temperature;BMP_pressure;BME280_temperature;BME280_humidity;BME280_pressure;Samples;Min_cycle;Max_cycle;Signal;HPM_P1;HPM_P2
2022/05/14 00:02:10;;;;;;;2.93;2.03;;;9.50;85.60;;;;;;4998576;28;20908;-56
2022/05/14 00:04:38;;;;;;;3.10;2.17;;;9.50;85.90;;;;;;4997234;28;20485;-56
2022/05/14 00:07:05;;;;;;;4.20;1.53;;;9.60;86.10;;;;;;5002093;28;20533;-56
2022/05/14 00:09:31;;;;;;;3.30;1.73;;;9.60;86.00;;;;;;4993087;28;20485;-56
2022/05/14 00:14:42;;;;;;;2.00;1.40;;;9.60;85.10;;;;;;4996713;28;20515;-55
2022/05/14 00:17:09;;;;;;;3.00;2.10;;;9.40;85.10;;;;;;4997296;28;21006;-55
2022/05/14 00:19:36;;;;;;;3.27;1.90;;;9.40;85.00;;;;;;4996236;28;20485;-55
2022/05/14 00:22:04;;;;;;;2.50;1.80;;;9.50;85.40;;;;;;4988911;28;20474;-55
2022/05/14 00:24:31;;;;;;;6.63;1.60;;;9.50;85.20;;;;;;4998611;28;20483;-55
2022/05/14 00:26:57;;;;;;;5.97;1.97;;;9.50;84.70;;;;;;4988155;28;20475;-55
2022/05/14 00:29:24;;;;;;;3.30;1.80;;;9.60;84.70;;;;;;4998741;28;20487;-55
2022/05/14 00:31:51;;;;;;;12.73;2.10;;;9.60;84.70;;;;;;5000648;28;20513;-55
2022/05/14 00:34:17;;;;;;;6.53;1.73;;;9.60;84.30;;;;;;4993113;28;21060;-55
2022/05/14 00:36:44;;;;;;;2.87;1.80;;;9.50;84.20;;;;;;5003587;28;20471;-55
2022/05/14 00:39:12;;;;;;;2.37;1.87;;;9.40;84.00;;;;;;4992098;28;21035;-55
2022/05/14 00:41:40;;;;;;;3.90;1.80;;;9.40;85.00;;;;;;4995487;28;20496;-55
2022/05/14 00:44:07;;;;;;;3.50;1.93;;;9.20;85.00;;;;;;5002702;28;20490;-55
2022/05/14 00:46:46;;;;;;;2.67;1.73;;;9.00;85.50;;;;;;5001557;28;20480;-55
2022/05/14 00:49:14;;;;;;;3.50;2.03;;;8.80;86.20;;;;;;5002371;28;20497;-55
2022/05/14 00:51:44;;;;;;;3.63;1.80;;;8.80;86.90;;;;;;5000891;28;20492;-55
2022/05/14 00:54:15;;;;;;;2.87;1.87;;;8.80;87.70;;;;;;4995928;28;20580;-56
2022/05/14 00:56:47;;;;;;;6.23;1.90;;;8.90;87.10;;;;;;4998790;28;20492;-56
2022/05/14 00:59:17;;;;;;;2.57;1.80;;;9.00;86.70;;;;;;5001245;28;20488;-56
2022/05/14 01:01:45;;;;;;;3.23;1.57;;;8.90;85.80;;;;;;5001682;28;20888;-56
2022/05/14 01:04:14;;;;;;;2.83;1.53;;;8.80;85.90;;;;;;5008395;28;20568;-56
2022/05/14 01:06:47;;;;;;;4.77;2.00;;;8.70;86.50;;;;;;5002407;28;20483;-56
2022/05/14 01:09:15;;;;;;;3.73;2.10;;;8.60;87.10;;;;;;5003114;28;20480;-56
2022/05/14 01:11:42;;;;;;;3.60;1.90;;;8.60;87.10;;;;;;4999130;28;20494;-55
2022/05/14 01:14:09;;;;;;;3.13;2.00;;;8.70;86.90;;;;;;5000988;28;20525;-56
2022/05/14 01:16:36;;;;;;;3.70;1.50;;;8.70;86.60;;;;;;5006494;28;20902;-55
2022/05/14 01:19:03;;;;;;;2.77;2.10;;;8.70;86.00;;;;;;5004244;28;20888;-56
2022/05/14 01:21:39;;;;;;;2.10;1.70;;;8.70;85.80;;;;;;5007681;28;21038;-56
2022/05/14 01:26:59;;;;;;;2.70;1.97;;;8.70;85.50;;;;;;5018627;28;21040;-56
2022/05/14 01:29:27;;;;;;;3.17;1.40;;;8.70;85.60;;;;;;5000262;28;20495;-56
2022/05/14 01:31:55;;;;;;;2.10;1.60;;;8.70;86.30;;;;;;5025773;28;20482;-55
2022/05/14 01:34:25;;;;;;;3.27;1.60;;;8.80;86.00;;;;;;5017196;28;20486;-56
2022/05/14 01:36:52;;;;;;;2.50;1.53;;;8.80;85.90;;;;;;5016447;28;20501;-56
2022/05/14 01:39:19;;;;;;;3.77;2.17;;;8.90;85.80;;;;;;5019867;28;20508;-56
2022/05/14 01:41:46;;;;;;;2.20;1.83;;;9.00;85.30;;;;;;5021048;28;20545;-56
2022/05/14 01:44:15;;;;;;;6.40;1.60;;;9.00;84.70;;;;;;5017720;28;20483;-56
2022/05/14 01:46:41;;;;;;;2.90;1.80;;;8.90;84.80;;;;;;5018279;28;20476;-56
2022/05/14 01:49:09;;;;;;;6.97;2.37;;;8.90;84.60;;;;;;5018111;28;20541;-56
2022/05/14 01:51:36;;;;;;;5.03;1.90;;;8.80;84.50;;;;;;5020136;28;20548;-56
2022/05/14 01:54:03;;;;;;;3.97;2.07;;;8.70;84.60;;;;;;5018410;28;20483;-56
2022/05/14 01:56:30;;;;;;;2.37;1.70;;;8.60;85.00;;;;;;5020245;28;20490;-56
2022/05/14 01:58:57;;;;;;;2.93;2.10;;;8.60;85.10;;;;;;5020521;28;20529;-56
2022/05/14 02:01:27;;;;;;;2.27;1.63;;;8.50;85.10;;;;;;5019541;28;20483;-56
2022/05/14 02:03:56;;;;;;;2.63;1.60;;;8.50;85.00;;;;;;5013286;28;20485;-56
2022/05/14 02:06:24;;;;;;;3.53;1.70;;;8.50;84.90;;;;;;5020081;28;20769;-56
2022/05/14 02:08:51;;;;;;;17.50;2.20;;;8.60;85.00;;;;;;5019319;28;21081;-56
2022/05/14 02:11:18;;;;;;;8.27;2.10;;;8.60;84.70;;;;;;5019640;28;20524;-57
2022/05/14 02:13:46;;;;;;;3.00;2.00;;;8.60;84.60;;;;;;5015165;28;20562;-56
2022/05/14 02:16:13;;;;;;;1.80;1.23;;;8.60;84.50;;;;;;5020274;28;20493;-56
2022/05/14 02:18:41;;;;;;;2.60;2.23;;;8.60;84.80;;;;;;5003898;28;20474;-56
2022/05/14 02:21:09;;;;;;;3.03;1.83;;;8.60;84.90;;;;;;5024007;28;21006;-56
2022/05/14 02:23:38;;;;;;;2.63;1.93;;;8.60;84.80;;;;;;5017154;28;20502;-56
2022/05/14 02:26:05;;;;;;;3.97;1.97;;;8.60;84.60;;;;;;5017370;28;20960;-56
2022/05/14 02:28:32;;;;;;;3.40;1.77;;;8.60;84.40;;;;;;5019238;28;20485;-56
2022/05/14 02:30:58;;;;;;;3.80;2.50;;;8.50;84.20;;;;;;5018406;28;20966;-56
2022/05/14 02:33:25;;;;;;;4.57;2.00;;;8.30;84.50;;;;;;5018615;28;20491;-56
2022/05/14 02:35:53;;;;;;;6.33;2.70;;;8.20;85.60;;;;;;5017910;28;20611;-57
2022/05/14 02:38:20;;;;;;;3.00;1.87;;;8.20;85.60;;;;;;5019723;28;20472;-56
2022/05/14 02:40:47;;;;;;;2.40;1.77;;;8.10;85.40;;;;;;5018319;28;20490;-56
2022/05/14 02:43:14;;;;;;;4.00;1.70;;;8.10;85.60;;;;;;5019372;28;20582;-56
2022/05/14 02:45:41;;;;;;;3.43;1.57;;;8.00;85.40;;;;;;5018216;28;20501;-56
2022/05/14 02:48:10;;;;;;;3.17;2.20;;;7.90;85.60;;;;;;5018139;28;20573;-55
2022/05/14 02:50:37;;;;;;;6.07;2.03;;;8.00;85.90;;;;;;5004684;28;20478;-56
2022/05/14 02:53:05;;;;;;;3.30;1.73;;;8.00;86.50;;;;;;5016462;28;21091;-56
2022/05/14 02:55:32;;;;;;;3.70;1.60;;;8.00;86.00;;;;;;5017555;28;20475;-56
2022/05/14 02:57:59;;;;;;;6.70;2.13;;;8.00;85.50;;;;;;5019099;28;20549;-56
2022/05/14 03:00:25;;;;;;;5.70;2.07;;;8.00;85.70;;;;;;5017551;28;20479;-57
2022/05/14 03:02:52;;;;;;;3.93;1.87;;;8.10;86.00;;;;;;5019056;28;20487;-56
2022/05/14 03:05:22;;;;;;;2.37;1.93;;;8.10;86.10;;;;;;5016646;28;20572;-56
2022/05/14 03:07:49;;;;;;;2.27;1.70;;;8.10;86.00;;;;;;5007701;28;20477;-56
2022/05/14 03:10:17;;;;;;;3.57;2.00;;;8.10;85.30;;;;;;5024427;28;20479;-56
2022/05/14 03:12:44;;;;;;;3.30;1.57;;;8.10;85.00;;;;;;5023821;28;20495;-57
2022/05/14 03:15:12;;;;;;;3.23;1.80;;;8.10;84.70;;;;;;5015255;28;20482;-56
2022/05/14 03:17:39;;;;;;;2.43;1.80;;;8.10;84.30;;;;;;5017905;28;20505;-56
2022/05/14 03:20:10;;;;;;;5.40;1.90;;;8.00;85.10;;;;;;4992834;28;21800;-56
2022/05/14 03:22:39;;;;;;;3.90;1.70;;;7.90;85.30;;;;;;5014028;28;20483;-57
2022/05/14 03:25:08;;;;;;;3.50;2.10;;;7.90;85.30;;;;;;5012701;28;20493;-57
2022/05/14 03:27:36;;;;;;;2.10;1.90;;;7.80;85.10;;;;;;5015944;28;20481;-57
2022/05/14 03:30:03;;;;;;;2.57;2.10;;;7.80;85.30;;;;;;5016845;28;20572;-57
2022/05/14 03:32:30;;;;;;;10.13;2.53;;;7.80;85.00;;;;;;5017117;28;21147;-56
2022/05/14 03:34:58;;;;;;;5.40;2.00;;;7.80;84.90;;;;;;5006118;28;20475;-56
2022/05/14 03:37:25;;;;;;;5.03;2.30;;;7.90;85.30;;;;;;5014221;28;21009;-56
2022/05/14 03:39:52;;;;;;;2.07;1.63;;;7.90;85.00;;;;;;5018063;28;20540;-57
2022/05/14 03:42:19;;;;;;;2.40;1.87;;;7.90;84.80;;;;;;5017223;28;20487;-57
2022/05/14 03:44:48;;;;;;;4.57;1.80;;;7.90;84.60;;;;;;5013684;28;22377;-57
2022/05/14 03:47:15;;;;;;;2.73;1.80;;;7.90;84.60;;;;;;5015625;28;20498;-56
2022/05/14 03:49:42;;;;;;;2.93;2.03;;;7.90;85.70;;;;;;5016498;28;20484;-57
2022/05/14 03:52:09;;;;;;;5.07;1.90;;;8.00;85.60;;;;;;5019054;28;20481;-55
2022/05/14 03:54:35;;;;;;;2.17;1.83;;;8.00;85.60;;;;;;5017739;28;20567;-55
2022/05/14 03:57:02;;;;;;;2.27;1.80;;;8.10;85.10;;;;;;5018154;28;20486;-56
2022/05/14 03:59:29;;;;;;;2.03;1.40;;;8.20;84.50;;;;;;5017986;28;20533;-56
2022/05/14 04:01:57;;;;;;;4.83;1.67;;;8.20;84.40;;;;;;4990807;28;20607;-56
2022/05/14 04:04:24;;;;;;;2.40;1.57;;;8.30;84.20;;;;;;5021388;28;20498;-56
2022/05/14 04:06:51;;;;;;;2.90;2.00;;;8.30;83.30;;;;;;5008367;28;20489;-56
2022/05/14 04:09:17;;;;;;;2.30;1.83;;;8.30;83.40;;;;;;4981839;28;20777;-57
2022/05/14 04:11:44;;;;;;;6.30;2.07;;;8.20;83.30;;;;;;5007706;28;20494;-57
2022/05/14 04:14:12;;;;;;;3.50;1.93;;;8.00;83.70;;;;;;5016160;28;20490;-58
2022/05/14 04:16:39;;;;;;;2.30;1.53;;;7.90;84.20;;;;;;5017862;28;20552;-58
2022/05/14 04:19:07;;;;;;;4.87;2.50;;;7.90;84.30;;;;;;5013888;28;20489;-58
2022/05/14 04:21:34;;;;;;;4.43;2.10;;;8.00;84.70;;;;;;5005759;28;20473;-57
2022/05/14 04:24:01;;;;;;;2.20;1.80;;;8.10;84.90;;;;;;5027063;28;20487;-58
2022/05/14 04:26:28;;;;;;;2.20;1.97;;;8.10;85.20;;;;;;5018444;28;20545;-57
2022/05/14 04:28:55;;;;;;;4.10;1.90;;;8.10;85.20;;;;;;5018160;28;20489;-57
2022/05/14 04:31:22;;;;;;;3.00;2.17;;;8.20;85.60;;;;;;5003380;28;20471;-58
2022/05/14 04:33:49;;;;;;;3.40;2.67;;;8.20;85.10;;;;;;5004676;28;20521;-58
2022/05/14 04:36:18;;;;;;;2.20;1.90;;;8.20;84.60;;;;;;5017249;28;20483;-58
2022/05/14 04:38:45;;;;;;;2.00;1.60;;;8.20;84.20;;;;;;5020409;28;20490;-57
2022/05/14 04:41:12;;;;;;;4.47;2.20;;;8.20;84.20;;;;;;5016190;28;20479;-58
2022/05/14 04:43:38;;;;;;;3.70;2.17;;;8.10;84.50;;;;;;5014461;28;20506;-58
2022/05/14 04:46:07;;;;;;;2.60;2.27;;;8.00;84.80;;;;;;5021067;28;20884;-58
2022/05/14 04:48:35;;;;;;;2.87;2.50;;;7.90;85.90;;;;;;5020607;28;20747;-58
2022/05/14 04:51:01;;;;;;;3.47;2.50;;;7.70;87.10;;;;;;5019160;28;20478;-58
2022/05/14 04:53:29;;;;;;;5.40;3.37;;;7.70;88.00;;;;;;5019557;28;20536;-57
2022/05/14 04:55:56;;;;;;;3.43;3.13;;;7.60;87.80;;;;;;5020256;28;20477;-57
2022/05/14 04:58:23;;;;;;;2.90;2.60;;;7.60;88.60;;;;;;5009990;28;20478;-57
2022/05/14 05:00:50;;;;;;;3.90;2.60;;;7.60;89.20;;;;;;5020726;28;20512;-58
2022/05/14 05:03:19;;;;;;;4.23;1.93;;;7.60;90.00;;;;;;5022072;28;20498;-58
2022/05/14 05:05:47;;;;;;;2.70;2.33;;;7.70;90.40;;;;;;5018574;28;20572;-58
2022/05/14 05:08:13;;;;;;;2.93;2.60;;;7.70;90.60;;;;;;5010644;28;20503;-58
2022/05/14 05:10:42;;;;;;;4.47;2.97;;;7.80;90.90;;;;;;5024926;28;20497;-57
2022/05/14 05:13:13;;;;;;;4.57;3.07;;;7.80;91.20;;;;;;5020743;28;20493;-58
2022/05/14 05:15:41;;;;;;;3.03;2.37;;;8.00;91.50;;;;;;5014926;28;20891;-58
2022/05/14 05:18:08;;;;;;;3.50;2.50;;;8.20;91.70;;;;;;5016773;28;20877;-57
2022/05/14 05:20:36;;;;;;;6.10;2.87;;;8.40;91.60;;;;;;5021678;28;20502;-58
2022/05/14 05:23:03;;;;;;;7.63;3.30;;;8.70;91.60;;;;;;5016776;28;20478;-58
2022/05/14 05:25:30;;;;;;;7.77;3.40;;;8.90;91.40;;;;;;5018325;28;21016;-57
2022/05/14 05:27:59;;;;;;;5.70;3.13;;;9.00;91.10;;;;;;5022990;28;20509;-57
2022/05/14 05:30:25;;;;;;;4.17;2.97;;;9.10;91.00;;;;;;5022534;28;20987;-57
2022/05/14 05:32:52;;;;;;;7.10;3.03;;;9.20;91.10;;;;;;5020289;28;20475;-57
2022/05/14 05:35:19;;;;;;;3.70;2.67;;;9.40;91.20;;;;;;5015781;28;20492;-57
2022/05/14 05:37:46;;;;;;;4.60;3.20;;;9.60;91.10;;;;;;5020792;28;20570;-56
2022/05/14 05:40:13;;;;;;;3.10;2.60;;;9.80;91.20;;;;;;5019192;28;20548;-57
2022/05/14 05:42:40;;;;;;;4.37;3.23;;;10.00;90.50;;;;;;5017084;28;20479;-57
2022/05/14 05:45:09;;;;;;;5.13;2.63;;;10.10;90.60;;;;;;5017683;28;20560;-57
2022/05/14 05:47:36;;;;;;;4.00;3.00;;;10.20;91.00;;;;;;5020325;28;20476;-57
2022/05/14 05:50:04;;;;;;;6.17;2.60;;;10.30;91.80;;;;;;5019801;28;20486;-57
2022/05/14 05:52:32;;;;;;;7.93;3.87;;;10.40;92.00;;;;;;5020176;28;20528;-58
2022/05/14 05:57:43;;;;;;;3.77;3.37;;;10.70;92.50;;;;;;5012867;28;20481;-57
2022/05/14 06:00:15;;;;;;;4.43;3.33;;;10.90;92.20;;;;;;5016997;28;20476;-57
2022/05/14 06:02:42;;;;;;;7.93;3.17;;;11.10;91.90;;;;;;4975300;28;20827;-58
2022/05/14 06:05:09;;;;;;;4.70;3.43;;;11.40;91.70;;;;;;5015976;28;20843;-58
2022/05/14 06:07:37;;;;;;;9.20;3.10;;;11.60;92.40;;;;;;5019098;28;20471;-58
2022/05/14 06:10:06;;;;;;;6.23;3.60;;;11.70;92.00;;;;;;5010188;28;20493;-58
2022/05/14 06:12:34;;;;;;;7.43;4.13;;;11.90;92.90;;;;;;4995537;28;20481;-57
2022/05/14 06:15:01;;;;;;;8.60;4.20;;;12.10;92.90;;;;;;4997998;28;20936;-58
2022/05/14 06:17:29;;;;;;;4.90;3.90;;;12.40;94.00;;;;;;4997782;28;20482;-60
2022/05/14 06:19:56;;;;;;;12.43;3.70;;;12.50;93.40;;;;;;4999641;28;20492;-58
2022/05/14 06:22:22;;;;;;;5.07;3.73;;;12.80;93.70;;;;;;5000176;28;20487;-58
2022/05/14 06:24:49;;;;;;;4.10;3.70;;;13.00;93.40;;;;;;4997285;28;20559;-57
2022/05/14 06:27:16;;;;;;;4.93;3.00;;;13.20;92.60;;;;;;4999094;28;20980;-57
2022/05/14 06:29:42;;;;;;;4.57;3.20;;;13.40;92.00;;;;;;5008340;28;21645;-57
2022/05/14 06:32:09;;;;;;;4.30;3.30;;;13.60;92.10;;;;;;4998022;28;20485;-57
2022/05/14 06:34:37;;;;;;;5.60;3.80;;;13.90;92.40;;;;;;4994782;28;20561;-57
2022/05/14 06:37:04;;;;;;;3.73;3.07;;;14.20;92.30;;;;;;4989095;28;20904;-57
2022/05/14 06:39:31;;;;;;;3.70;3.07;;;14.40;91.70;;;;;;4998623;28;20936;-57
2022/05/14 06:41:58;;;;;;;6.53;3.00;;;14.70;91.70;;;;;;4999135;28;20566;-57
2022/05/14 06:44:25;;;;;;;4.90;3.07;;;14.90;91.20;;;;;;4979844;28;20483;-57
2022/05/14 06:46:52;;;;;;;2.90;2.43;;;15.10;91.10;;;;;;4997621;28;20910;-58
2022/05/14 06:49:18;;;;;;;5.90;2.67;;;15.40;89.40;;;;;;4998996;28;20569;-57
2022/05/14 06:51:46;;;;;;;5.40;3.27;;;15.60;90.00;;;;;;4997042;28;20489;-58
2022/05/14 06:54:14;;;;;;;2.53;2.17;;;15.90;89.20;;;;;;4986351;28;20495;-57
2022/05/14 06:56:44;;;;;;;7.00;2.40;;;16.20;87.90;;;;;;4997580;28;20915;-57
2022/05/14 06:59:12;;;;;;;3.20;2.37;;;16.50;87.50;;;;;;4995270;28;20542;-57
2022/05/14 07:01:40;;;;;;;9.87;2.80;;;16.80;87.10;;;;;;4993102;28;20484;-58
2022/05/14 07:06:56;;;;;;;3.37;2.77;;;17.50;85.60;;;;;;4996856;28;20531;-58
2022/05/14 07:09:27;;;;;;;4.50;2.63;;;17.90;85.70;;;;;;4998356;28;21043;-58
2022/05/14 07:11:56;;;;;;;7.27;3.10;;;18.00;83.60;;;;;;4995058;28;20511;-58
2022/05/14 07:14:24;;;;;;;4.53;2.63;;;18.20;84.40;;;;;;4996247;28;20883;-59
2022/05/14 07:16:52;;;;;;;6.83;3.23;;;18.40;84.30;;;;;;4997683;28;20492;-58
2022/05/14 07:19:18;;;;;;;6.03;2.77;;;18.60;83.90;;;;;;4998905;28;20492;-59
2022/05/14 07:21:47;;;;;;;4.70;2.90;;;18.80;84.00;;;;;;4997730;28;21059;-58
2022/05/14 07:24:18;;;;;;;4.10;2.80;;;19.10;83.40;;;;;;4996987;28;20477;-58
2022/05/14 07:26:45;;;;;;;5.40;3.30;;;19.20;83.00;;;;;;4996781;28;21003;-58
2022/05/14 07:29:14;;;;;;;7.23;2.50;;;19.20;81.40;;;;;;4999114;28;20527;-57
2022/05/14 07:31:41;;;;;;;4.17;2.60;;;19.50;82.30;;;;;;4993078;28;20481;-57
2022/05/14 07:34:08;;;;;;;6.73;2.80;;;19.60;80.40;;;;;;4985734;28;20513;-57
2022/05/14 07:36:41;;;;;;;7.17;2.63;;;19.90;83.10;;;;;;4995415;28;20481;-58
2022/05/14 07:39:08;;;;;;;7.13;2.43;;;20.20;81.00;;;;;;5012990;28;20498;-56
2022/05/14 07:41:40;;;;;;;8.83;3.03;;;20.40;79.50;;;;;;5013989;28;20824;-58
2022/05/14 07:44:11;;;;;;;5.07;3.23;;;20.40;79.90;;;;;;5016735;28;20477;-56
2022/05/14 07:46:39;;;;;;;5.67;2.60;;;20.30;79.80;;;;;;5017140;28;20556;-57
2022/05/14 07:49:10;;;;;;;4.70;2.77;;;20.20;78.30;;;;;;5013120;28;20468;-57
2022/05/14 07:51:38;;;;;;;4.23;2.67;;;20.00;78.50;;;;;;5012766;28;20553;-57
2022/05/14 07:54:05;;;;;;;4.40;3.43;;;19.90;81.60;;;;;;5013568;28;20511;-57
2022/05/14 07:56:32;;;;;;;6.20;3.10;;;20.10;82.90;;;;;;5013412;28;20488;-58
2022/05/14 07:59:00;;;;;;;4.60;2.57;;;20.50;82.10;;;;;;5017051;28;20480;-57
2022/05/14 08:01:27;;;;;;;5.53;3.07;;;21.10;80.50;;;;;;5018154;28;20501;-57
2022/05/14 08:03:53;;;;;;;8.10;2.87;;;21.50;79.00;;;;;;5015936;28;20499;-57
2022/05/14 08:06:22;;;;;;;6.40;2.77;;;22.00;78.60;;;;;;5017431;28;20493;-57
2022/05/14 08:08:49;;;;;;;7.00;3.67;;;22.20;77.10;;;;;;5014882;28;21088;-58
2022/05/14 08:11:16;;;;;;;6.30;2.23;;;22.50;78.60;;;;;;5021401;28;20849;-57
2022/05/14 08:13:43;;;;;;;2.70;2.13;;;22.90;77.10;;;;;;5019378;28;20546;-57
2022/05/14 08:16:11;;;;;;;8.40;2.80;;;23.20;75.80;;;;;;5016271;28;20475;-57
2022/05/14 08:18:38;;;;;;;8.87;2.50;;;23.00;72.10;;;;;;5020177;28;21183;-57
2022/05/14 08:26:29;;;;;;;7.97;2.60;;;23.60;72.20;;;;;;5019947;28;20483;-58
2022/05/14 08:28:56;;;;;;;6.60;2.87;;;23.90;73.80;;;;;;5021353;28;20480;-58
2022/05/14 08:31:24;;;;;;;6.57;2.80;;;24.10;72.30;;;;;;5020014;28;20475;-57
2022/05/14 08:33:51;;;;;;;9.30;3.20;;;24.30;72.10;;;;;;5019553;28;20492;-57
2022/05/14 08:36:17;;;;;;;5.77;2.73;;;24.50;73.50;;;;;;5012984;28;20494;-58
2022/05/14 08:38:44;;;;;;;5.40;2.47;;;24.70;71.50;;;;;;5029407;28;20481;-57
2022/05/14 08:41:15;;;;;;;15.20;3.53;;;24.90;70.30;;;;;;5022071;28;20520;-58
2022/05/14 08:43:44;;;;;;;3.40;2.43;;;25.00;70.30;;;;;;5014494;28;20621;-58
2022/05/14 08:46:13;;;;;;;5.70;2.63;;;25.10;70.80;;;;;;5027129;28;20476;-58
2022/05/14 08:48:42;;;;;;;5.20;2.97;;;25.20;70.90;;;;;;5020519;28;20523;-58
2022/05/14 08:51:12;;;;;;;3.30;2.10;;;25.30;69.50;;;;;;5019730;28;20477;-58
2022/05/14 08:53:40;;;;;;;11.63;2.60;;;25.40;70.10;;;;;;5015372;28;20484;-57
2022/05/14 08:56:19;;;;;;;6.43;2.90;;;25.10;65.80;;;;;;5019465;28;20472;-57
2022/05/14 08:59:01;;;;;;;4.60;3.00;;;24.60;66.00;;;;;;5010206;28;20484;-57
2022/05/14 09:01:36;;;;;;;5.00;2.70;;;24.10;67.10;;;;;;5010067;28;20504;-57
2022/05/14 09:04:04;;;;;;;3.20;2.63;;;24.00;71.20;;;;;;5021060;28;20507;-57
2022/05/14 09:06:31;;;;;;;5.40;2.90;;;23.60;69.20;;;;;;5020368;28;20550;-59
2022/05/14 09:08:58;;;;;;;4.93;2.40;;;23.90;72.80;;;;;;5015981;28;20620;-58
2022/05/14 09:11:28;;;;;;;3.90;2.27;;;24.10;70.40;;;;;;5018994;28;20495;-58
2022/05/14 09:13:57;;;;;;;3.47;2.50;;;24.50;70.40;;;;;;5016021;28;20487;-58
2022/05/14 09:16:28;;;;;;;3.70;3.00;;;24.90;71.30;;;;;;5020580;28;20492;-57
2022/05/14 09:18:55;;;;;;;4.10;2.63;;;25.20;70.00;;;;;;5019316;28;20481;-57
2022/05/14 09:21:26;;;;;;;4.60;2.77;;;25.50;69.50;;;;;;5019673;28;20484;-57
2022/05/14 09:23:56;;;;;;;10.00;3.17;;;25.20;61.80;;;;;;5018861;28;20517;-57
2022/05/14 09:26:33;;;;;;;3.77;2.43;;;24.90;64.80;;;;;;5018695;28;20555;-57
2022/05/14 09:29:12;;;;;;;7.33;2.63;;;24.50;64.30;;;;;;5011998;28;20491;-57
2022/05/14 09:31:51;;;;;;;4.70;2.07;;;24.40;67.80;;;;;;5019275;28;20542;-58
2022/05/14 09:34:19;;;;;;;4.70;2.73;;;24.60;68.80;;;;;;5018026;28;21020;-57
2022/05/14 09:36:50;;;;;;;4.27;2.10;;;24.90;68.50;;;;;;5008173;28;20624;-57
2022/05/14 09:39:20;;;;;;;5.60;2.40;;;24.60;63.20;;;;;;5020484;28;20511;-56
2022/05/14 09:41:49;;;;;;;4.07;2.07;;;24.60;65.20;;;;;;5018375;28;20883;-56
2022/05/14 09:44:21;;;;;;;5.10;2.70;;;24.00;64.00;;;;;;5017802;28;20568;-56
2022/05/14 09:46:48;;;;;;;5.50;2.37;;;23.70;65.80;;;;;;5018136;28;21048;-56
2022/05/14 09:49:21;;;;;;;3.93;2.47;;;23.20;65.30;;;;;;5018065;28;20477;-56
2022/05/14 09:51:53;;;;;;;4.13;1.90;;;23.30;68.20;;;;;;5010178;28;20573;-57
2022/05/14 09:54:23;;;;;;;7.77;2.97;;;23.40;67.80;;;;;;5015292;28;20618;-55
2022/05/14 09:57:21;;;;;;;9.67;2.00;;;23.50;68.40;;;;;;5007887;28;20556;-56
2022/05/14 10:00:11;;;;;;;7.20;2.20;;;23.50;64.90;;;;;;5017920;28;20526;-56
2022/05/14 10:03:12;;;;;;;3.60;1.90;;;23.60;65.10;;;;;;5015313;28;20467;-56
2022/05/14 10:05:50;;;;;;;5.83;2.40;;;23.30;62.50;;;;;;5009396;28;20476;-57
2022/05/14 10:08:27;;;;;;;3.53;2.70;;;23.30;67.90;;;;;;5019693;28;20476;-57
2022/05/14 10:11:03;;;;;;;3.13;2.00;;;23.20;63.60;;;;;;5016557;28;20485;-57
2022/05/14 10:13:36;;;;;;;3.40;2.10;;;23.30;63.70;;;;;;5005924;28;20563;-56
2022/05/14 10:16:08;;;;;;;4.23;1.83;;;23.50;65.70;;;;;;5013283;28;20493;-55
2022/05/14 10:18:49;;;;;;;5.93;2.70;;;23.70;64.10;;;;;;5007304;28;20484;-55
2022/05/14 10:21:23;;;;;;;3.23;2.33;;;23.60;65.20;;;;;;5015615;28;20484;-55
2022/05/14 10:27:02;;;;;;;5.33;2.83;;;23.70;63.10;;;;;;5018020;28;20472;-55
2022/05/14 10:29:40;;;;;;;6.57;2.47;;;24.00;69.00;;;;;;5007497;28;20484;-56
2022/05/14 10:32:09;;;;;;;3.07;2.17;;;24.30;64.70;;;;;;5017914;28;20485;-55
2022/05/14 10:34:42;;;;;;;7.17;2.87;;;24.50;69.70;;;;;;5015476;28;20505;-55
2022/05/14 10:37:17;;;;;;;6.27;3.33;;;24.70;64.80;;;;;;5016644;28;20509;-57
2022/05/14 10:39:53;;;;;;;6.90;2.80;;;24.90;68.70;;;;;;5012841;28;20506;-56
2022/05/14 10:42:26;;;;;;;4.00;2.33;;;25.20;63.00;;;;;;5017970;28;20468;-56
2022/05/14 10:44:59;;;;;;;4.53;2.20;;;25.10;63.60;;;;;;5012585;28;20488;-56
2022/05/14 10:47:28;;;;;;;8.90;2.50;;;24.80;62.20;;;;;;5006234;28;20515;-54
2022/05/14 10:49:58;;;;;;;5.00;2.60;;;24.30;63.00;;;;;;5017517;28;20473;-55
2022/05/14 10:52:25;;;;;;;7.80;5.10;;;24.20;62.10;;;;;;5006255;28;20473;-55
2022/05/14 10:54:53;;;;;;;6.73;2.30;;;24.20;64.80;;;;;;5017528;28;20497;-55
2022/05/14 10:57:40;;;;;;;5.70;2.40;;;24.30;65.80;;;;;;5018365;28;20504;-55
2022/05/14 11:00:20;;;;;;;5.63;2.67;;;24.50;65.60;;;;;;5016055;28;20501;-56
2022/05/14 11:03:00;;;;;;;4.00;2.20;;;24.50;64.80;;;;;;5017205;28;21048;-56
2022/05/14 11:05:30;;;;;;;4.97;2.40;;;24.80;66.10;;;;;;5008212;28;20476;-55
2022/05/14 11:08:08;;;;;;;6.77;2.93;;;24.90;64.60;;;;;;5005795;28;20489;-56
2022/05/14 11:10:37;;;;;;;3.87;2.57;;;25.10;64.70;;;;;;5008441;28;20483;-55
2022/05/14 11:13:17;;;;;;;4.00;2.60;;;25.40;67.10;;;;;;5014419;28;20481;-55
2022/05/14 11:15:44;;;;;;;4.80;1.83;;;25.60;62.50;;;;;;5007314;28;20488;-55
2022/05/14 11:18:14;;;;;;;9.80;2.60;;;25.70;64.40;;;;;;5014202;28;20527;-54
2022/05/14 11:20:55;;;;;;;8.57;2.37;;;25.70;62.80;;;;;;5014136;28;20484;-55
2022/05/14 11:23:22;;;;;;;3.53;2.20;;;25.70;63.30;;;;;;5015625;28;20978;-55
2022/05/14 11:26:04;;;;;;;7.00;2.83;;;25.60;62.30;;;;;;5014980;28;20488;-55
2022/05/14 11:28:31;;;;;;;3.57;1.80;;;25.60;62.20;;;;;;5005722;28;20530;-55
2022/05/14 11:31:15;;;;;;;5.00;2.07;;;25.60;63.40;;;;;;5013580;28;20523;-55
2022/05/14 11:33:42;;;;;;;3.27;2.00;;;25.60;61.30;;;;;;4988106;28;21183;-55
2022/05/14 11:36:20;;;;;;;4.67;2.63;;;25.40;58.70;;;;;;4975926;28;20747;-55
2022/05/14 11:38:53;;;;;;;5.80;2.20;;;25.20;60.00;;;;;;4983223;28;21058;-54
2022/05/14 11:41:30;;;;;;;3.50;2.20;;;25.10;60.60;;;;;;4982209;28;20489;-54
2022/05/14 11:43:57;;;;;;;4.27;2.50;;;25.20;63.30;;;;;;4980952;28;20465;-55
2022/05/14 11:46:30;;;;;;;3.23;2.47;;;25.50;64.90;;;;;;4976986;28;20490;-55
2022/05/14 11:49:04;;;;;;;4.87;2.20;;;25.80;66.50;;;;;;4982382;28;20494;-56
2022/05/14 11:51:55;;;;;;;2.60;1.90;;;25.70;59.60;;;;;;4982063;28;20556;-56
2022/05/14 11:54:27;;;;;;;7.30;2.30;;;25.60;61.60;;;;;;4995089;28;20452;-55
2022/05/14 11:57:02;;;;;;;2.67;2.10;;;25.80;60.90;;;;;;4985674;28;20656;-54
2022/05/14 11:59:37;;;;;;;3.40;2.13;;;25.50;57.00;;;;;;4976129;28;20492;-55
2022/05/14 12:02:09;;;;;;;2.23;1.80;;;25.30;57.80;;;;;;4991661;28;20480;-54
2022/05/14 12:04:40;;;;;;;9.30;2.20;;;25.30;61.90;;;;;;4997370;28;20853;-54
2022/05/14 12:07:22;;;;;;;6.37;2.40;;;25.30;61.80;;;;;;4977484;28;20488;-55
2022/05/14 12:10:06;;;;;;;4.30;2.13;;;25.30;58.00;;;;;;4988184;28;20481;-54
2022/05/14 12:12:42;;;;;;;3.87;2.57;;;25.40;61.10;;;;;;4995818;28;20511;-55
2022/05/14 12:15:13;;;;;;;5.30;2.80;;;25.50;60.00;;;;;;4960395;28;21359;-55
2022/05/14 12:17:48;;;;;;;4.03;2.60;;;25.70;59.10;;;;;;4977787;28;21231;-55
2022/05/14 12:20:22;;;;;;;5.27;2.97;;;26.10;59.60;;;;;;4939516;28;20535;-54
2022/05/14 12:22:54;;;;;;;2.27;2.00;;;26.50;60.00;;;;;;4952730;28;20947;-56
2022/05/14 12:25:21;;;;;;;3.23;1.83;;;26.70;56.40;;;;;;4979360;28;20892;-55
2022/05/14 12:33:57;;;;;;;7.40;1.87;;;26.70;57.30;;;;;;4979196;28;21041;-55
2022/05/14 12:36:25;;;;;;;3.77;2.20;;;26.70;53.80;;;;;;4989255;28;20697;-55
2022/05/14 12:38:52;;;;;;;5.33;2.00;;;26.60;54.10;;;;;;5001846;28;20764;-54
2022/05/14 12:41:27;;;;;;;2.97;2.03;;;26.40;53.90;;;;;;5006000;28;20534;-54
2022/05/14 12:43:54;;;;;;;4.20;2.73;;;26.50;58.00;;;;;;5004983;28;20472;-54
2022/05/14 12:46:22;;;;;;;4.13;2.20;;;26.70;58.30;;;;;;4994232;28;20450;-54
2022/05/14 12:48:52;;;;;;;4.10;2.37;;;26.70;54.30;;;;;;5004347;28;20575;-53
2022/05/14 12:51:21;;;;;;;5.20;1.77;;;26.80;54.00;;;;;;5011070;28;20472;-57
2022/05/14 12:53:48;;;;;;;5.30;1.97;;;27.20;59.10;;;;;;4999221;28;20541;-53
2022/05/14 12:56:17;;;;;;;8.53;2.27;;;27.00;51.40;;;;;;5012225;28;20614;-54
2022/05/14 12:58:44;;;;;;;9.90;3.30;;;27.20;56.60;;;;;;5002237;28;20972;-54
2022/05/14 13:01:12;;;;;;;4.73;2.50;;;27.50;57.10;;;;;;5014591;28;20476;-55
2022/05/14 13:03:44;;;;;;;20.50;11.87;;;27.80;55.50;;;;;;5005643;28;20523;-56
2022/05/14 13:06:16;;;;;;;4.10;2.43;;;27.80;54.50;;;;;;5008523;28;20558;-55
2022/05/14 13:08:45;;;;;;;5.10;3.07;;;27.80;56.20;;;;;;5000201;28;20456;-54
2022/05/14 13:11:16;;;;;;;5.30;2.23;;;28.00;56.60;;;;;;5005094;28;20452;-54
2022/05/14 13:13:46;;;;;;;3.57;1.97;;;28.30;58.30;;;;;;5005319;28;20487;-55
2022/05/14 13:16:14;;;;;;;5.93;3.23;;;28.30;53.90;;;;;;5003622;28;20489;-55
2022/05/14 13:18:46;;;;;;;4.53;2.27;;;28.40;55.20;;;;;;5010822;28;20546;-55
2022/05/14 13:21:19;;;;;;;5.67;2.90;;;28.50;57.70;;;;;;5008460;28;20558;-55
2022/05/14 13:23:58;;;;;;;6.40;2.40;;;28.40;54.10;;;;;;5003024;28;20496;-55
2022/05/14 13:26:32;;;;;;;4.53;2.53;;;28.40;55.40;;;;;;5001006;28;20476;-55
2022/05/14 13:29:12;;;;;;;4.47;2.73;;;28.60;56.70;;;;;;5002658;28;20484;-55